sensor_id;sensor_type;location;lat;lon;timestamp;P1;durP1;ratioP1;P2;durP2;ratioP2
78774;SDS011;68119;43.398;3.676;2023-07-24T00:00:54;10.82;;;6.70;;
78774;SDS011;68119;43.398;3.676;2023-07-24T00:03:20;17.80;;;6.63;;
78774;SDS011;68119;43.398;3.676;2023-07-24T00:05:48;14.98;;;6.63;;
78774;SDS011;68119;43.398;3.676;2023-07-24T00:08:16;13.85;;;6.80;;
78774;SDS011;68119;43.398;3.676;2023-07-24T00:10:45;14.95;;;6.72;;
78774;SDS011;68119;43.398;3.676;2023-07-24T00:13:15;11.48;;;6.57;;
78774;SDS011;68119;43.398;3.676;2023-07-24T00:15:46;15.35;;;7.22;;
78774;SDS011;68119;43.398;3.676;2023-07-24T00:18:17;15.63;;;7.03;;
78774;SDS011;68119;43.398;3.676;2023-07-24T00:23:21;14.48;;;6.95;;
78774;SDS011;68119;43.398;3.676;2023-07-24T00:25:50;16.42;;;7.28;;
78774;SDS011;68119;43.398;3.676;2023-07-24T00:28:23;12.82;;;6.35;;
78774;SDS011;68119;43.398;3.676;2023-07-24T00:30:52;16.25;;;6.47;;
78774;SDS011;68119;43.398;3.676;2023-07-24T00:33:21;15.30;;;6.45;;
78774;SDS011;68119;43.398;3.676;2023-07-24T00:35:49;18.33;;;6.97;;
78774;SDS011;68119;43.398;3.676;2023-07-24T00:38:17;16.08;;;6.53;;
78774;SDS011;68119;43.398;3.676;2023-07-24T00:40:49;13.77;;;6.53;;
78774;SDS011;68119;43.398;3.676;2023-07-24T00:43:17;16.70;;;6.97;;
78774;SDS011;68119;43.398;3.676;2023-07-24T00:45:52;17.02;;;7.07;;
78774;SDS011;68119;43.398;3.676;2023-07-24T00:48:30;15.57;;;7.15;;
78774;SDS011;68119;43.398;3.676;2023-07-24T00:51:00;13.00;;;6.60;;
78774;SDS011;68119;43.398;3.676;2023-07-24T00:53:32;14.82;;;6.80;;
78774;SDS011;68119;43.398;3.676;2023-07-24T00:56:00;13.32;;;6.65;;
78774;SDS011;68119;43.398;3.676;2023-07-24T01:01:06;12.25;;;6.30;;
78774;SDS011;68119;43.398;3.676;2023-07-24T01:03:37;12.35;;;6.40;;
78774;SDS011;68119;43.398;3.676;2023-07-24T01:06:12;10.65;;;6.35;;
78774;SDS011;68119;43.398;3.676;2023-07-24T01:08:40;13.00;;;6.50;;
78774;SDS011;68119;43.398;3.676;2023-07-24T01:13:41;13.63;;;6.75;;
78774;SDS011;68119;43.398;3.676;2023-07-24T01:16:15;11.82;;;6.15;;
78774;SDS011;68119;43.398;3.676;2023-07-24T01:18:50;12.77;;;6.70;;
78774;SDS011;68119;43.398;3.676;2023-07-24T01:21:24;20.38;;;6.88;;
78774;SDS011;68119;43.398;3.676;2023-07-24T01:24:01;12.77;;;6.80;;
78774;SDS011;68119;43.398;3.676;2023-07-24T01:29:15;12.20;;;6.68;;
78774;SDS011;68119;43.398;3.676;2023-07-24T01:31:49;12.38;;;6.15;;
78774;SDS011;68119;43.398;3.676;2023-07-24T01:34:21;14.23;;;7.18;;
78774;SDS011;68119;43.398;3.676;2023-07-24T01:36:52;13.13;;;6.88;;
78774;SDS011;68119;43.398;3.676;2023-07-24T01:39:19;14.60;;;6.45;;
78774;SDS011;68119;43.398;3.676;2023-07-24T01:41:51;12.43;;;6.70;;
78774;SDS011;68119;43.398;3.676;2023-07-24T01:44:27;15.02;;;6.40;;
78774;SDS011;68119;43.398;3.676;2023-07-24T01:47:01;17.23;;;7.32;;
78774;SDS011;68119;43.398;3.676;2023-07-24T01:49:32;14.75;;;6.60;;
78774;SDS011;68119;43.398;3.676;2023-07-24T01:52:01;15.05;;;6.90;;
78774;SDS011;68119;43.398;3.676;2023-07-24T01:54:35;12.40;;;6.55;;
78774;SDS011;68119;43.398;3.676;2023-07-24T01:57:09;14.63;;;6.80;;
78774;SDS011;68119;43.398;3.676;2023-07-24T01:59:35;12.60;;;7.05;;
78774;SDS011;68119;43.398;3.676;2023-07-24T02:02:07;13.65;;;6.50;;
78774;SDS011;68119;43.398;3.676;2023-07-24T02:04:40;21.55;;;7.53;;
78774;SDS011;68119;43.398;3.676;2023-07-24T02:07:09;15.70;;;6.60;;
78774;SDS011;68119;43.398;3.676;2023-07-24T02:09:43;16.80;;;7.30;;
78774;SDS011;68119;43.398;3.676;2023-07-24T02:12:09;18.25;;;6.47;;
78774;SDS011;68119;43.398;3.676;2023-07-24T02:14:40;16.35;;;6.28;;
78774;SDS011;68119;43.398;3.676;2023-07-24T02:17:08;13.60;;;6.60;;
78774;SDS011;68119;43.398;3.676;2023-07-24T02:19:37;16.52;;;6.78;;
78774;SDS011;68119;43.398;3.676;2023-07-24T02:22:08;15.05;;;6.35;;
78774;SDS011;68119;43.398;3.676;2023-07-24T02:24:39;13.73;;;6.40;;
78774;SDS011;68119;43.398;3.676;2023-07-24T02:27:11;15.80;;;6.45;;
78774;SDS011;68119;43.398;3.676;2023-07-24T02:29:41;17.30;;;6.93;;
78774;SDS011;68119;43.398;3.676;2023-07-24T02:32:09;15.45;;;7.00;;
78774;SDS011;68119;43.398;3.676;2023-07-24T02:34:38;17.75;;;6.88;;
78774;SDS011;68119;43.398;3.676;2023-07-24T02:37:17;14.73;;;6.70;;
78774;SDS011;68119;43.398;3.676;2023-07-24T02:39:48;13.95;;;6.35;;
78774;SDS011;68119;43.398;3.676;2023-07-24T02:42:14;17.42;;;7.43;;
78774;SDS011;68119;43.398;3.676;2023-07-24T02:44:51;12.95;;;6.35;;
78774;SDS011;68119;43.398;3.676;2023-07-24T02:47:23;12.65;;;6.50;;
78774;SDS011;68119;43.398;3.676;2023-07-24T02:49:52;13.82;;;6.88;;
78774;SDS011;68119;43.398;3.676;2023-07-24T02:52:22;14.38;;;6.72;;
78774;SDS011;68119;43.398;3.676;2023-07-24T02:54:56;12.90;;;6.60;;
78774;SDS011;68119;43.398;3.676;2023-07-24T02:57:22;18.98;;;7.55;;
78774;SDS011;68119;43.398;3.676;2023-07-24T02:59:59;13.15;;;7.22;;
78774;SDS011;68119;43.398;3.676;2023-07-24T03:02:28;12.27;;;6.95;;
78774;SDS011;68119;43.398;3.676;2023-07-24T03:05:01;15.80;;;7.20;;
78774;SDS011;68119;43.398;3.676;2023-07-24T03:07:33;13.75;;;7.18;;
78774;SDS011;68119;43.398;3.676;2023-07-24T03:10:10;12.48;;;7.10;;
78774;SDS011;68119;43.398;3.676;2023-07-24T03:12:40;13.65;;;8.05;;
78774;SDS011;68119;43.398;3.676;2023-07-24T03:15:12;16.52;;;7.32;;
78774;SDS011;68119;43.398;3.676;2023-07-24T03:17:49;16.00;;;7.78;;
78774;SDS011;68119;43.398;3.676;2023-07-24T03:20:25;12.43;;;7.05;;
78774;SDS011;68119;43.398;3.676;2023-07-24T03:23:00;14.43;;;7.55;;
78774;SDS011;68119;43.398;3.676;2023-07-24T03:25:34;14.65;;;7.70;;
78774;SDS011;68119;43.398;3.676;2023-07-24T03:28:03;13.57;;;7.30;;
78774;SDS011;68119;43.398;3.676;2023-07-24T03:30:29;16.05;;;7.05;;
78774;SDS011;68119;43.398;3.676;2023-07-24T03:33:00;17.02;;;8.02;;
78774;SDS011;68119;43.398;3.676;2023-07-24T03:35:33;16.50;;;7.68;;
78774;SDS011;68119;43.398;3.676;2023-07-24T03:38:07;19.33;;;7.75;;
78774;SDS011;68119;43.398;3.676;2023-07-24T03:40:33;15.15;;;6.95;;
78774;SDS011;68119;43.398;3.676;2023-07-24T03:42:59;18.77;;;7.10;;
78774;SDS011;68119;43.398;3.676;2023-07-24T03:45:30;15.68;;;7.15;;
78774;SDS011;68119;43.398;3.676;2023-07-24T03:48:05;13.80;;;7.40;;
78774;SDS011;68119;43.398;3.676;2023-07-24T03:50:35;16.30;;;7.45;;
78774;SDS011;68119;43.398;3.676;2023-07-24T03:53:08;13.05;;;7.75;;
78774;SDS011;68119;43.398;3.676;2023-07-24T03:55:39;15.00;;;7.00;;
78774;SDS011;68119;43.398;3.676;2023-07-24T03:58:05;18.13;;;7.30;;
78774;SDS011;68119;43.398;3.676;2023-07-24T04:00:34;15.52;;;6.75;;
78774;SDS011;68119;43.398;3.676;2023-07-24T04:03:02;12.43;;;6.80;;
78774;SDS011;68119;43.398;3.676;2023-07-24T04:05:34;12.60;;;7.15;;
78774;SDS011;68119;43.398;3.676;2023-07-24T04:08:05;12.35;;;7.05;;
78774;SDS011;68119;43.398;3.676;2023-07-24T04:10:50;12.55;;;6.63;;
78774;SDS011;68119;43.398;3.676;2023-07-24T04:13:20;13.15;;;7.40;;
78774;SDS011;68119;43.398;3.676;2023-07-24T04:15:48;16.33;;;7.63;;
78774;SDS011;68119;43.398;3.676;2023-07-24T04:18:17;12.35;;;7.55;;
78774;SDS011;68119;43.398;3.676;2023-07-24T04:20:45;17.58;;;7.28;;
78774;SDS011;68119;43.398;3.676;2023-07-24T04:23:23;13.30;;;6.85;;
78774;SDS011;68119;43.398;3.676;2023-07-24T04:25:51;12.48;;;7.10;;
78774;SDS011;68119;43.398;3.676;2023-07-24T04:28:20;16.58;;;7.35;;
78774;SDS011;68119;43.398;3.676;2023-07-24T04:30:48;14.05;;;7.75;;
78774;SDS011;68119;43.398;3.676;2023-07-24T04:33:22;15.25;;;8.07;;
78774;SDS011;68119;43.398;3.676;2023-07-24T04:35:56;15.65;;;7.40;;
78774;SDS011;68119;43.398;3.676;2023-07-24T04:38:27;12.25;;;7.45;;
78774;SDS011;68119;43.398;3.676;2023-07-24T04:41:04;15.07;;;7.80;;
78774;SDS011;68119;43.398;3.676;2023-07-24T04:43:30;15.98;;;7.93;;
78774;SDS011;68119;43.398;3.676;2023-07-24T04:45:59;11.52;;;7.22;;
78774;SDS011;68119;43.398;3.676;2023-07-24T04:48:32;15.68;;;7.88;;
78774;SDS011;68119;43.398;3.676;2023-07-24T04:51:07;13.13;;;7.75;;
78774;SDS011;68119;43.398;3.676;2023-07-24T04:53:35;15.10;;;8.10;;
78774;SDS011;68119;43.398;3.676;2023-07-24T04:56:08;18.08;;;8.07;;
78774;SDS011;68119;43.398;3.676;2023-07-24T05:01:05;16.27;;;7.30;;
78774;SDS011;68119;43.398;3.676;2023-07-24T05:03:34;17.60;;;7.88;;
78774;SDS011;68119;43.398;3.676;2023-07-24T05:06:08;18.98;;;8.02;;
78774;SDS011;68119;43.398;3.676;2023-07-24T05:08:41;13.25;;;7.45;;
78774;SDS011;68119;43.398;3.676;2023-07-24T05:11:15;21.55;;;7.82;;
78774;SDS011;68119;43.398;3.676;2023-07-24T05:13:49;17.17;;;7.63;;
78774;SDS011;68119;43.398;3.676;2023-07-24T05:16:26;16.52;;;7.72;;
78774;SDS011;68119;43.398;3.676;2023-07-24T05:18:59;19.02;;;8.38;;
78774;SDS011;68119;43.398;3.676;2023-07-24T05:21:36;15.13;;;7.80;;
78774;SDS011;68119;43.398;3.676;2023-07-24T05:24:07;15.57;;;7.97;;
78774;SDS011;68119;43.398;3.676;2023-07-24T05:26:39;13.32;;;7.68;;
78774;SDS011;68119;43.398;3.676;2023-07-24T05:29:16;23.55;;;8.02;;
78774;SDS011;68119;43.398;3.676;2023-07-24T05:31:49;17.02;;;8.23;;
78774;SDS011;68119;43.398;3.676;2023-07-24T05:34:21;19.13;;;8.27;;
78774;SDS011;68119;43.398;3.676;2023-07-24T05:36:49;18.20;;;7.57;;
78774;SDS011;68119;43.398;3.676;2023-07-24T05:39:20;13.98;;;7.25;;
78774;SDS011;68119;43.398;3.676;2023-07-24T05:41:51;15.60;;;7.80;;
78774;SDS011;68119;43.398;3.676;2023-07-24T05:44:20;19.08;;;7.15;;
78774;SDS011;68119;43.398;3.676;2023-07-24T05:46:45;16.13;;;7.70;;
78774;SDS011;68119;43.398;3.676;2023-07-24T05:49:28;16.23;;;7.13;;
78774;SDS011;68119;43.398;3.676;2023-07-24T05:51:59;18.60;;;7.95;;
78774;SDS011;68119;43.398;3.676;2023-07-24T05:54:28;16.50;;;7.43;;
78774;SDS011;68119;43.398;3.676;2023-07-24T05:57:03;14.82;;;6.78;;
78774;SDS011;68119;43.398;3.676;2023-07-24T05:59:32;17.65;;;7.88;;
78774;SDS011;68119;43.398;3.676;2023-07-24T06:02:03;14.20;;;7.82;;
78774;SDS011;68119;43.398;3.676;2023-07-24T06:04:34;16.15;;;7.68;;
78774;SDS011;68119;43.398;3.676;2023-07-24T06:07:06;15.60;;;7.40;;
78774;SDS011;68119;43.398;3.676;2023-07-24T06:09:37;19.02;;;7.90;;
78774;SDS011;68119;43.398;3.676;2023-07-24T06:12:08;17.42;;;7.47;;
78774;SDS011;68119;43.398;3.676;2023-07-24T06:14:40;17.42;;;7.95;;
78774;SDS011;68119;43.398;3.676;2023-07-24T06:17:09;16.27;;;6.93;;
78774;SDS011;68119;43.398;3.676;2023-07-24T06:19:44;17.60;;;7.30;;
78774;SDS011;68119;43.398;3.676;2023-07-24T06:22:16;13.45;;;7.10;;
78774;SDS011;68119;43.398;3.676;2023-07-24T06:24:50;16.65;;;7.20;;
78774;SDS011;68119;43.398;3.676;2023-07-24T06:27:24;13.60;;;7.07;;
78774;SDS011;68119;43.398;3.676;2023-07-24T06:30:00;15.48;;;7.15;;
78774;SDS011;68119;43.398;3.676;2023-07-24T06:32:32;17.73;;;7.40;;
78774;SDS011;68119;43.398;3.676;2023-07-24T06:35:00;14.93;;;7.22;;
78774;SDS011;68119;43.398;3.676;2023-07-24T06:37:31;18.50;;;7.20;;
78774;SDS011;68119;43.398;3.676;2023-07-24T06:39:57;21.25;;;7.85;;
78774;SDS011;68119;43.398;3.676;2023-07-24T06:42:32;15.18;;;7.35;;
78774;SDS011;68119;43.398;3.676;2023-07-24T06:45:03;19.25;;;7.43;;
78774;SDS011;68119;43.398;3.676;2023-07-24T06:47:32;14.55;;;6.95;;
78774;SDS011;68119;43.398;3.676;2023-07-24T06:50:03;20.40;;;7.78;;
78774;SDS011;68119;43.398;3.676;2023-07-24T06:52:34;20.67;;;7.50;;
78774;SDS011;68119;43.398;3.676;2023-07-24T06:55:11;19.75;;;7.75;;
78774;SDS011;68119;43.398;3.676;2023-07-24T06:57:37;25.40;;;8.20;;
78774;SDS011;68119;43.398;3.676;2023-07-24T07:00:08;23.10;;;7.50;;
78774;SDS011;68119;43.398;3.676;2023-07-24T07:02:43;24.05;;;7.50;;
78774;SDS011;68119;43.398;3.676;2023-07-24T07:05:17;21.38;;;7.90;;
78774;SDS011;68119;43.398;3.676;2023-07-24T07:07:43;17.95;;;7.65;;
78774;SDS011;68119;43.398;3.676;2023-07-24T07:10:14;18.73;;;7.65;;
78774;SDS011;68119;43.398;3.676;2023-07-24T07:12:46;23.63;;;8.38;;
78774;SDS011;68119;43.398;3.676;2023-07-24T07:15:19;28.15;;;8.13;;
78774;SDS011;68119;43.398;3.676;2023-07-24T07:17:51;24.98;;;8.27;;
78774;SDS011;68119;43.398;3.676;2023-07-24T07:20:22;27.00;;;7.57;;
78774;SDS011;68119;43.398;3.676;2023-07-24T07:22:58;24.55;;;7.80;;
78774;SDS011;68119;43.398;3.676;2023-07-24T07:25:29;25.27;;;8.55;;
78774;SDS011;68119;43.398;3.676;2023-07-24T07:27:58;21.15;;;7.45;;
78774;SDS011;68119;43.398;3.676;2023-07-24T07:30:24;27.30;;;8.30;;
78774;SDS011;68119;43.398;3.676;2023-07-24T07:32:52;23.95;;;7.22;;
78774;SDS011;68119;43.398;3.676;2023-07-24T07:35:21;18.92;;;7.38;;
78774;SDS011;68119;43.398;3.676;2023-07-24T07:37:50;16.83;;;7.15;;
78774;SDS011;68119;43.398;3.676;2023-07-24T07:40:19;18.45;;;7.22;;
78774;SDS011;68119;43.398;3.676;2023-07-24T07:42:48;16.33;;;7.00;;
78774;SDS011;68119;43.398;3.676;2023-07-24T07:45:22;16.95;;;7.25;;
78774;SDS011;68119;43.398;3.676;2023-07-24T07:47:56;15.82;;;7.25;;
78774;SDS011;68119;43.398;3.676;2023-07-24T07:50:27;13.25;;;7.22;;
78774;SDS011;68119;43.398;3.676;2023-07-24T07:52:56;18.98;;;8.20;;
78774;SDS011;68119;43.398;3.676;2023-07-24T07:55:27;16.60;;;6.95;;
78774;SDS011;68119;43.398;3.676;2023-07-24T07:57:59;19.00;;;7.82;;
78774;SDS011;68119;43.398;3.676;2023-07-24T08:00:35;16.50;;;7.40;;
78774;SDS011;68119;43.398;3.676;2023-07-24T08:03:09;15.85;;;7.28;;
78774;SDS011;68119;43.398;3.676;2023-07-24T08:05:40;18.13;;;7.10;;
78774;SDS011;68119;43.398;3.676;2023-07-24T08:08:08;19.00;;;8.25;;
78774;SDS011;68119;43.398;3.676;2023-07-24T08:10:40;18.33;;;6.90;;
78774;SDS011;68119;43.398;3.676;2023-07-24T08:13:11;21.60;;;7.32;;
78774;SDS011;68119;43.398;3.676;2023-07-24T08:15:40;18.25;;;7.47;;
78774;SDS011;68119;43.398;3.676;2023-07-24T08:18:11;19.83;;;8.07;;
78774;SDS011;68119;43.398;3.676;2023-07-24T08:20:42;19.88;;;7.35;;
78774;SDS011;68119;43.398;3.676;2023-07-24T08:23:11;19.98;;;7.53;;
78774;SDS011;68119;43.398;3.676;2023-07-24T08:25:39;15.95;;;7.60;;
78774;SDS011;68119;43.398;3.676;2023-07-24T08:30:38;24.35;;;7.80;;
78774;SDS011;68119;43.398;3.676;2023-07-24T08:33:12;19.80;;;7.07;;
78774;SDS011;68119;43.398;3.676;2023-07-24T08:35:43;16.90;;;7.20;;
78774;SDS011;68119;43.398;3.676;2023-07-24T08:38:11;16.13;;;6.95;;
78774;SDS011;68119;43.398;3.676;2023-07-24T08:40:40;14.60;;;7.03;;
78774;SDS011;68119;43.398;3.676;2023-07-24T08:43:11;14.95;;;6.93;;
78774;SDS011;68119;43.398;3.676;2023-07-24T08:45:46;19.95;;;6.85;;
78774;SDS011;68119;43.398;3.676;2023-07-24T08:48:20;16.60;;;6.38;;
78774;SDS011;68119;43.398;3.676;2023-07-24T08:51:07;10.98;;;6.95;;
78774;SDS011;68119;43.398;3.676;2023-07-24T08:53:42;17.73;;;6.97;;
78774;SDS011;68119;43.398;3.676;2023-07-24T08:56:15;15.98;;;6.70;;
78774;SDS011;68119;43.398;3.676;2023-07-24T08:58:48;16.35;;;6.60;;
78774;SDS011;68119;43.398;3.676;2023-07-24T09:01:20;20.40;;;6.50;;
78774;SDS011;68119;43.398;3.676;2023-07-24T09:03:52;11.98;;;6.57;;
78774;SDS011;68119;43.398;3.676;2023-07-24T09:06:18;18.50;;;7.00;;
78774;SDS011;68119;43.398;3.676;2023-07-24T09:08:53;15.63;;;6.45;;
78774;SDS011;68119;43.398;3.676;2023-07-24T09:11:21;19.77;;;6.95;;
78774;SDS011;68119;43.398;3.676;2023-07-24T09:13:52;18.15;;;7.55;;
78774;SDS011;68119;43.398;3.676;2023-07-24T09:16:24;15.07;;;6.93;;
78774;SDS011;68119;43.398;3.676;2023-07-24T09:18:51;15.45;;;7.03;;
78774;SDS011;68119;43.398;3.676;2023-07-24T09:21:28;21.17;;;7.10;;
78774;SDS011;68119;43.398;3.676;2023-07-24T09:23:57;21.25;;;7.10;;
78774;SDS011;68119;43.398;3.676;2023-07-24T09:26:50;18.60;;;6.80;;
78774;SDS011;68119;43.398;3.676;2023-07-24T09:29:31;15.32;;;7.28;;
78774;SDS011;68119;43.398;3.676;2023-07-24T09:32:00;16.17;;;6.25;;
78774;SDS011;68119;43.398;3.676;2023-07-24T09:34:31;15.13;;;7.07;;
78774;SDS011;68119;43.398;3.676;2023-07-24T09:37:09;23.27;;;7.20;;
78774;SDS011;68119;43.398;3.676;2023-07-24T09:39:37;14.07;;;6.65;;
78774;SDS011;68119;43.398;3.676;2023-07-24T09:42:09;16.55;;;6.97;;
78774;SDS011;68119;43.398;3.676;2023-07-24T09:44:38;13.55;;;6.25;;
78774;SDS011;68119;43.398;3.676;2023-07-24T09:47:07;12.90;;;6.28;;
78774;SDS011;68119;43.398;3.676;2023-07-24T09:49:40;12.95;;;7.03;;
78774;SDS011;68119;43.398;3.676;2023-07-24T09:52:09;14.95;;;6.47;;
78774;SDS011;68119;43.398;3.676;2023-07-24T09:54:43;15.70;;;6.38;;
78774;SDS011;68119;43.398;3.676;2023-07-24T09:57:26;11.95;;;6.75;;
78774;SDS011;68119;43.398;3.676;2023-07-24T09:59:58;14.73;;;6.95;;
78774;SDS011;68119;43.398;3.676;2023-07-24T10:02:31;20.13;;;7.20;;
78774;SDS011;68119;43.398;3.676;2023-07-24T10:05:00;18.45;;;7.28;;
78774;SDS011;68119;43.398;3.676;2023-07-24T10:07:35;19.45;;;7.60;;
78774;SDS011;68119;43.398;3.676;2023-07-24T10:10:01;20.20;;;8.38;;
78774;SDS011;68119;43.398;3.676;2023-07-24T10:12:31;16.35;;;9.05;;
78774;SDS011;68119;43.398;3.676;2023-07-24T10:15:01;17.58;;;10.02;;
78774;SDS011;68119;43.398;3.676;2023-07-24T10:17:37;13.38;;;8.50;;
78774;SDS011;68119;43.398;3.676;2023-07-24T10:20:09;13.55;;;8.48;;
78774;SDS011;68119;43.398;3.676;2023-07-24T10:22:36;13.98;;;8.82;;
78774;SDS011;68119;43.398;3.676;2023-07-24T10:25:08;12.88;;;8.70;;
78774;SDS011;68119;43.398;3.676;2023-07-24T10:27:39;16.60;;;8.10;;
78774;SDS011;68119;43.398;3.676;2023-07-24T10:30:14;12.68;;;8.25;;
78774;SDS011;68119;43.398;3.676;2023-07-24T10:33:11;11.75;;;8.35;;
78774;SDS011;68119;43.398;3.676;2023-07-24T10:38:32;15.40;;;8.00;;
78774;SDS011;68119;43.398;3.676;2023-07-24T10:41:08;14.30;;;8.02;;
78774;SDS011;68119;43.398;3.676;2023-07-24T10:43:42;13.60;;;8.48;;
78774;SDS011;68119;43.398;3.676;2023-07-24T10:46:15;13.48;;;8.52;;
78774;SDS011;68119;43.398;3.676;2023-07-24T10:48:51;13.02;;;8.30;;
78774;SDS011;68119;43.398;3.676;2023-07-24T10:51:21;14.60;;;8.45;;
78774;SDS011;68119;43.398;3.676;2023-07-24T10:53:54;14.90;;;8.63;;
78774;SDS011;68119;43.398;3.676;2023-07-24T10:56:23;13.38;;;8.70;;
78774;SDS011;68119;43.398;3.676;2023-07-24T10:58:55;18.70;;;8.45;;
78774;SDS011;68119;43.398;3.676;2023-07-24T11:01:26;15.88;;;8.23;;
78774;SDS011;68119;43.398;3.676;2023-07-24T11:03:55;16.63;;;9.00;;
78774;SDS011;68119;43.398;3.676;2023-07-24T11:06:25;11.75;;;8.27;;
78774;SDS011;68119;43.398;3.676;2023-07-24T11:11:30;16.85;;;9.20;;
78774;SDS011;68119;43.398;3.676;2023-07-24T11:14:00;15.55;;;9.02;;
78774;SDS011;68119;43.398;3.676;2023-07-24T11:16:29;16.50;;;8.50;;
78774;SDS011;68119;43.398;3.676;2023-07-24T11:18:58;16.83;;;8.85;;
78774;SDS011;68119;43.398;3.676;2023-07-24T11:21:26;18.63;;;8.90;;
78774;SDS011;68119;43.398;3.676;2023-07-24T11:23:56;16.17;;;8.40;;
78774;SDS011;68119;43.398;3.676;2023-07-24T11:26:28;13.98;;;8.10;;
78774;SDS011;68119;43.398;3.676;2023-07-24T11:28:57;18.25;;;8.27;;
78774;SDS011;68119;43.398;3.676;2023-07-24T11:31:36;14.48;;;8.02;;
78774;SDS011;68119;43.398;3.676;2023-07-24T11:34:04;12.50;;;7.43;;
78774;SDS011;68119;43.398;3.676;2023-07-24T11:36:35;14.35;;;7.93;;
78774;SDS011;68119;43.398;3.676;2023-07-24T11:39:04;14.30;;;8.30;;
78774;SDS011;68119;43.398;3.676;2023-07-24T11:41:37;18.17;;;8.63;;
78774;SDS011;68119;43.398;3.676;2023-07-24T11:44:06;17.85;;;7.97;;
78774;SDS011;68119;43.398;3.676;2023-07-24T11:46:36;10.35;;;7.47;;
78774;SDS011;68119;43.398;3.676;2023-07-24T11:49:10;15.23;;;7.72;;
78774;SDS011;68119;43.398;3.676;2023-07-24T11:51:44;10.68;;;7.00;;
78774;SDS011;68119;43.398;3.676;2023-07-24T11:54:12;13.90;;;7.97;;
78774;SDS011;68119;43.398;3.676;2023-07-24T11:56:41;10.45;;;6.70;;
78774;SDS011;68119;43.398;3.676;2023-07-24T11:59:13;12.68;;;6.07;;
78774;SDS011;68119;43.398;3.676;2023-07-24T12:01:49;8.68;;;5.65;;
78774;SDS011;68119;43.398;3.676;2023-07-24T12:04:15;8.23;;;5.80;;
78774;SDS011;68119;43.398;3.676;2023-07-24T12:06:47;7.80;;;5.68;;
78774;SDS011;68119;43.398;3.676;2023-07-24T12:09:18;9.15;;;5.78;;
78774;SDS011;68119;43.398;3.676;2023-07-24T12:11:58;8.63;;;5.20;;
78774;SDS011;68119;43.398;3.676;2023-07-24T12:14:27;7.78;;;4.80;;
78774;SDS011;68119;43.398;3.676;2023-07-24T12:17:04;7.85;;;4.38;;
78774;SDS011;68119;43.398;3.676;2023-07-24T12:19:41;8.02;;;4.40;;
78774;SDS011;68119;43.398;3.676;2023-07-24T12:22:12;7.05;;;4.32;;
78774;SDS011;68119;43.398;3.676;2023-07-24T12:24:43;7.85;;;4.38;;
78774;SDS011;68119;43.398;3.676;2023-07-24T12:27:19;8.00;;;4.07;;
78774;SDS011;68119;43.398;3.676;2023-07-24T12:29:51;8.23;;;4.03;;
78774;SDS011;68119;43.398;3.676;2023-07-24T12:32:20;5.30;;;3.60;;
78774;SDS011;68119;43.398;3.676;2023-07-24T12:34:49;3.72;;;2.88;;
78774;SDS011;68119;43.398;3.676;2023-07-24T12:37:21;5.38;;;3.10;;
78774;SDS011;68119;43.398;3.676;2023-07-24T12:39:56;4.63;;;3.55;;
78774;SDS011;68119;43.398;3.676;2023-07-24T12:42:27;9.45;;;3.80;;
78774;SDS011;68119;43.398;3.676;2023-07-24T12:44:58;5.53;;;3.67;;
78774;SDS011;68119;43.398;3.676;2023-07-24T12:47:32;6.57;;;3.78;;
78774;SDS011;68119;43.398;3.676;2023-07-24T12:50:01;6.30;;;3.55;;
78774;SDS011;68119;43.398;3.676;2023-07-24T12:52:35;4.38;;;3.40;;
78774;SDS011;68119;43.398;3.676;2023-07-24T12:55:06;6.75;;;3.53;;
78774;SDS011;68119;43.398;3.676;2023-07-24T12:57:34;4.15;;;3.35;;
78774;SDS011;68119;43.398;3.676;2023-07-24T13:00:03;4.18;;;3.00;;
78774;SDS011;68119;43.398;3.676;2023-07-24T13:02:33;7.15;;;3.47;;
78774;SDS011;68119;43.398;3.676;2023-07-24T13:05:04;14.75;;;3.58;;
78774;SDS011;68119;43.398;3.676;2023-07-24T13:07:32;13.13;;;3.92;;
78774;SDS011;68119;43.398;3.676;2023-07-24T13:10:07;5.05;;;3.40;;
78774;SDS011;68119;43.398;3.676;2023-07-24T13:12:33;7.80;;;3.65;;
78774;SDS011;68119;43.398;3.676;2023-07-24T13:15:04;5.03;;;3.35;;
78774;SDS011;68119;43.398;3.676;2023-07-24T13:17:36;4.32;;;3.40;;
78774;SDS011;68119;43.398;3.676;2023-07-24T13:20:05;4.63;;;3.50;;
78774;SDS011;68119;43.398;3.676;2023-07-24T13:22:40;5.07;;;3.47;;
78774;SDS011;68119;43.398;3.676;2023-07-24T13:25:14;5.72;;;3.72;;
78774;SDS011;68119;43.398;3.676;2023-07-24T13:27:43;7.47;;;3.90;;
78774;SDS011;68119;43.398;3.676;2023-07-24T13:30:12;5.93;;;4.05;;
78774;SDS011;68119;43.398;3.676;2023-07-24T13:32:40;5.55;;;4.25;;
78774;SDS011;68119;43.398;3.676;2023-07-24T13:35:13;6.78;;;4.03;;
78774;SDS011;68119;43.398;3.676;2023-07-24T13:37:50;7.35;;;4.10;;
78774;SDS011;68119;43.398;3.676;2023-07-24T13:40:27;6.68;;;4.43;;
78774;SDS011;68119;43.398;3.676;2023-07-24T13:42:52;6.05;;;4.00;;
78774;SDS011;68119;43.398;3.676;2023-07-24T13:45:21;4.93;;;3.85;;
78774;SDS011;68119;43.398;3.676;2023-07-24T13:47:52;9.48;;;4.45;;
78774;SDS011;68119;43.398;3.676;2023-07-24T13:50:18;11.43;;;4.43;;
78774;SDS011;68119;43.398;3.676;2023-07-24T13:52:50;5.55;;;3.42;;
78774;SDS011;68119;43.398;3.676;2023-07-24T13:55:24;7.22;;;4.50;;
78774;SDS011;68119;43.398;3.676;2023-07-24T13:57:52;6.60;;;4.05;;
78774;SDS011;68119;43.398;3.676;2023-07-24T14:00:20;8.52;;;4.30;;
78774;SDS011;68119;43.398;3.676;2023-07-24T14:02:51;9.13;;;4.25;;
78774;SDS011;68119;43.398;3.676;2023-07-24T14:05:20;6.53;;;4.47;;
78774;SDS011;68119;43.398;3.676;2023-07-24T14:07:54;7.97;;;4.63;;
78774;SDS011;68119;43.398;3.676;2023-07-24T14:10:27;9.90;;;5.43;;
78774;SDS011;68119;43.398;3.676;2023-07-24T14:12:58;8.45;;;5.63;;
78774;SDS011;68119;43.398;3.676;2023-07-24T14:15:24;9.75;;;6.15;;
78774;SDS011;68119;43.398;3.676;2023-07-24T14:17:55;8.88;;;6.45;;
78774;SDS011;68119;43.398;3.676;2023-07-24T14:20:25;12.27;;;6.50;;
78774;SDS011;68119;43.398;3.676;2023-07-24T14:22:54;9.38;;;6.78;;
78774;SDS011;68119;43.398;3.676;2023-07-24T14:25:28;10.05;;;7.10;;
78774;SDS011;68119;43.398;3.676;2023-07-24T14:27:56;8.85;;;6.82;;
78774;SDS011;68119;43.398;3.676;2023-07-24T14:30:30;10.15;;;6.63;;
78774;SDS011;68119;43.398;3.676;2023-07-24T14:33:01;12.85;;;7.45;;
78774;SDS011;68119;43.398;3.676;2023-07-24T14:35:32;10.32;;;6.88;;
78774;SDS011;68119;43.398;3.676;2023-07-24T14:38:08;23.65;;;8.52;;
78774;SDS011;68119;43.398;3.676;2023-07-24T14:40:39;13.43;;;6.03;;
78774;SDS011;68119;43.398;3.676;2023-07-24T14:43:07;7.15;;;5.38;;
78774;SDS011;68119;43.398;3.676;2023-07-24T14:45:42;11.18;;;5.13;;
78774;SDS011;68119;43.398;3.676;2023-07-24T14:48:15;6.85;;;4.88;;
78774;SDS011;68119;43.398;3.676;2023-07-24T14:50:44;6.68;;;4.90;;
78774;SDS011;68119;43.398;3.676;2023-07-24T14:53:10;8.10;;;5.13;;
78774;SDS011;68119;43.398;3.676;2023-07-24T14:55:41;7.43;;;4.93;;
78774;SDS011;68119;43.398;3.676;2023-07-24T14:58:12;10.43;;;5.32;;
78774;SDS011;68119;43.398;3.676;2023-07-24T15:00:54;7.47;;;5.47;;
78774;SDS011;68119;43.398;3.676;2023-07-24T15:03:28;8.73;;;5.15;;
78774;SDS011;68119;43.398;3.676;2023-07-24T15:05:59;9.90;;;5.03;;
78774;SDS011;68119;43.398;3.676;2023-07-24T15:08:32;6.88;;;5.03;;
78774;SDS011;68119;43.398;3.676;2023-07-24T15:11:03;7.93;;;4.85;;
78774;SDS011;68119;43.398;3.676;2023-07-24T15:13:31;6.75;;;4.75;;
78774;SDS011;68119;43.398;3.676;2023-07-24T15:16:00;8.93;;;5.00;;
78774;SDS011;68119;43.398;3.676;2023-07-24T15:18:31;6.35;;;5.05;;
78774;SDS011;68119;43.398;3.676;2023-07-24T15:21:03;8.20;;;5.35;;